Time;durP1;ratioP1;P1;durP2;ratioP2;P2;SDS_P1;SDS_P2;PMS_P1;PMS_P2;Temp;Humidity;BMP_temperature;BMP_pressure;BME280_temperature;BME280_humidity;BME280_pressure;Samples;Min_cycle;Max_cycle;Signal;HPM_P1;HPM_P2
2022/09/29 00:01:50;;;;;;;2.88;1.20;;;14.40;99.90;;;;;;5075524;28;20048;-83
2022/09/29 00:04:16;;;;;;;2.50;1.30;;;14.20;99.90;;;;;;5075340;28;20031;-83
2022/09/29 00:06:42;;;;;;;3.88;1.50;;;14.30;99.90;;;;;;5075230;28;20445;-82
2022/09/29 00:09:07;;;;;;;2.55;1.50;;;14.80;99.90;;;;;;5075054;28;20029;-83
2022/09/29 00:11:33;;;;;;;2.15;1.70;;;14.60;99.90;;;;;;5075057;28;20421;-83
2022/09/29 00:13:59;;;;;;;3.10;1.60;;;14.60;99.90;;;;;;5074644;28;20405;-83
2022/09/29 00:16:24;;;;;;;3.75;1.58;;;14.60;99.90;;;;;;5075352;28;20500;-83
2022/09/29 00:18:53;;;;;;;2.67;1.58;;;14.60;99.90;;;;;;5074966;28;20074;-82
2022/09/29 00:21:19;;;;;;;1.73;1.50;;;15.00;99.90;;;;;;5074889;28;20063;-83
2022/09/29 00:23:45;;;;;;;2.03;1.38;;;15.10;99.90;;;;;;5074708;28;20430;-83
2022/09/29 00:26:14;;;;;;;2.63;1.40;;;14.40;99.90;;;;;;5074822;28;20024;-83
2022/09/29 00:28:45;;;;;;;1.70;1.60;;;14.30;99.90;;;;;;5074835;28;20055;-83
2022/09/29 00:31:11;;;;;;;4.05;1.33;;;14.20;99.90;;;;;;5074801;28;20024;-83
2022/09/29 00:33:37;;;;;;;3.45;1.50;;;14.20;99.90;;;;;;5075137;28;20087;-83
2022/09/29 00:36:06;;;;;;;4.40;1.52;;;14.00;99.90;;;;;;5074774;28;20103;-83
2022/09/29 00:38:33;;;;;;;4.70;1.30;;;13.90;99.90;;;;;;5074714;28;20028;-83
2022/09/29 00:40:59;;;;;;;2.25;1.35;;;13.80;99.90;;;;;;5074519;28;20039;-82
2022/09/29 00:44:02;;;;;;;2.88;1.50;;;14.00;99.90;;;;;;5074323;28;20384;-83
2022/09/29 00:46:43;;;;;;;3.53;1.50;;;14.10;99.90;;;;;;5074463;28;20039;-83
2022/09/29 00:49:17;;;;;;;2.45;1.65;;;14.10;99.90;;;;;;5074891;28;20082;-83
2022/09/29 00:51:50;;;;;;;3.83;1.40;;;14.10;99.90;;;;;;5075198;28;20498;-83
2022/09/29 00:54:16;;;;;;;3.50;1.80;;;14.10;99.90;;;;;;5074370;28;20028;-82
2022/09/29 00:56:43;;;;;;;2.25;1.35;;;14.10;99.90;;;;;;5074021;28;20024;-83
2022/09/29 00:59:16;;;;;;;1.90;1.33;;;14.10;99.90;;;;;;5074187;28;20098;-83
2022/09/29 01:01:42;;;;;;;2.50;1.20;;;14.20;99.90;;;;;;5074024;28;20052;-83
2022/09/29 01:04:13;;;;;;;1.48;1.00;;;14.10;99.90;;;;;;5074569;28;20048;-83
2022/09/29 01:06:40;;;;;;;2.95;0.98;;;14.30;99.90;;;;;;5074282;28;20471;-82
2022/09/29 01:09:10;;;;;;;3.53;1.00;;;14.20;99.90;;;;;;5074049;28;20048;-83
2022/09/29 01:11:36;;;;;;;2.38;0.98;;;14.60;99.90;;;;;;5073869;28;20031;-82
2022/09/29 01:14:05;;;;;;;1.48;0.90;;;14.20;99.90;;;;;;5073949;28;20459;-83
2022/09/29 01:16:32;;;;;;;2.05;1.23;;;14.20;99.90;;;;;;5073996;28;20051;-83
2022/09/29 01:18:59;;;;;;;0.75;0.75;;;14.10;99.90;;;;;;5073796;28;20073;-83
2022/09/29 01:21:46;;;;;;;1.55;0.80;;;14.10;99.90;;;;;;5074288;28;20028;-82
2022/09/29 01:24:42;;;;;;;0.90;0.77;;;14.10;99.90;;;;;;5073822;28;20035;-83
2022/09/29 01:27:42;;;;;;;2.80;0.90;;;14.20;99.90;;;;;;5073229;28;20024;-83
2022/09/29 01:30:17;;;;;;;2.63;0.98;;;14.20;99.90;;;;;;5072367;28;20393;-83
2022/09/29 01:33:10;;;;;;;1.10;0.90;;;14.20;99.90;;;;;;5073394;28;20036;-82
2022/09/29 01:35:47;;;;;;;2.35;0.85;;;14.30;99.90;;;;;;5073481;28;20039;-83
2022/09/29 01:38:16;;;;;;;1.70;0.80;;;14.30;99.90;;;;;;5073174;28;20139;-82
2022/09/29 01:40:53;;;;;;;3.05;1.10;;;14.40;99.90;;;;;;5072944;28;20507;-83
2022/09/29 01:43:41;;;;;;;1.45;1.10;;;14.40;99.90;;;;;;5073402;28;20028;-83
2022/09/29 01:46:20;;;;;;;1.02;0.90;;;14.20;99.90;;;;;;5073339;28;20024;-83
2022/09/29 01:48:52;;;;;;;2.30;1.65;;;14.10;99.90;;;;;;5073272;28;20074;-83
2022/09/29 01:51:28;;;;;;;3.33;1.23;;;14.10;99.90;;;;;;5073227;28;20024;-83
2022/09/29 01:53:59;;;;;;;1.90;1.20;;;14.10;99.90;;;;;;5073191;28;20116;-83
2022/09/29 01:56:32;;;;;;;3.33;1.65;;;14.00;99.90;;;;;;5073570;28;20048;-83
2022/09/29 01:59:04;;;;;;;3.40;2.33;;;14.50;99.90;;;;;;5073507;28;20028;-83
2022/09/29 02:01:35;;;;;;;5.30;3.08;;;14.00;99.90;;;;;;5072778;28;20067;-83
2022/09/29 02:04:06;;;;;;;2.97;2.33;;;13.90;99.90;;;;;;5073014;28;20449;-83
2022/09/29 02:06:42;;;;;;;3.42;1.70;;;13.80;99.90;;;;;;5073034;28;20488;-82
2022/09/29 02:09:15;;;;;;;1.05;0.70;;;13.70;99.90;;;;;;5072480;28;20024;-83
2022/09/29 02:11:41;;;;;;;1.02;0.70;;;13.60;99.90;;;;;;5072740;28;20032;-83
2022/09/29 02:14:21;;;;;;;1.50;0.82;;;13.50;99.90;;;;;;5073097;28;20036;-83
2022/09/29 02:17:03;;;;;;;0.55;0.55;;;13.80;99.90;;;;;;5073062;28;20025;-83
2022/09/29 02:19:33;;;;;;;0.80;0.60;;;13.90;99.90;;;;;;5072794;28;20028;-83
2022/09/29 02:21:59;;;;;;;1.25;0.60;;;13.50;99.90;;;;;;5072637;28;20388;-83
2022/09/29 02:24:25;;;;;;;1.00;0.60;;;13.80;99.90;;;;;;5072106;28;20032;-83
2022/09/29 02:26:51;;;;;;;1.73;0.47;;;13.60;99.90;;;;;;5072519;28;20017;-83
2022/09/29 02:29:18;;;;;;;3.35;0.60;;;14.20;99.90;;;;;;5072459;28;20032;-82
2022/09/29 02:31:45;;;;;;;4.65;0.52;;;13.60;99.90;;;;;;5072191;28;20033;-83
2022/09/29 02:34:14;;;;;;;0.63;0.40;;;13.60;99.90;;;;;;5072322;28;20040;-83
2022/09/29 02:37:17;;;;;;;3.65;0.50;;;13.60;99.90;;;;;;5072430;28;20029;-82
2022/09/29 02:39:42;;;;;;;0.43;0.43;;;13.70;99.90;;;;;;5049708;28;20090;-83
2022/09/29 02:42:30;;;;;;;0.30;0.30;;;13.70;99.90;;;;;;5050135;28;20480;-83
2022/09/29 02:44:56;;;;;;;0.50;0.50;;;13.70;99.90;;;;;;5050608;28;20032;-83
2022/09/29 02:47:40;;;;;;;1.75;0.50;;;13.70;99.90;;;;;;5049986;28;20420;-82
2022/09/29 02:50:24;;;;;;;2.85;0.57;;;13.70;99.90;;;;;;5049843;28;20040;-83
2022/09/29 02:53:01;;;;;;;1.88;0.55;;;13.60;99.90;;;;;;5050160;28;20037;-83
2022/09/29 02:55:48;;;;;;;2.47;0.50;;;13.60;99.90;;;;;;5050111;28;20045;-83
2022/09/29 02:58:19;;;;;;;1.48;0.50;;;13.50;99.90;;;;;;5050016;28;20033;-83
2022/09/29 03:00:46;;;;;;;3.13;0.50;;;13.50;99.90;;;;;;5049723;28;20032;-83
2022/09/29 03:03:11;;;;;;;1.90;0.32;;;13.60;99.90;;;;;;5049792;28;20044;-83
2022/09/29 03:05:37;;;;;;;1.30;0.50;;;13.80;99.90;;;;;;5049859;28;20017;-83
2022/09/29 03:08:03;;;;;;;1.58;0.50;;;13.70;99.90;;;;;;5049836;28;20094;-83
2022/09/29 03:10:28;;;;;;;1.13;0.40;;;13.50;99.90;;;;;;5049975;28;20109;-82
2022/09/29 03:12:54;;;;;;;2.72;0.45;;;13.50;99.90;;;;;;5049723;28;20036;-83
2022/09/29 03:15:20;;;;;;;1.58;0.40;;;13.60;99.90;;;;;;5051097;28;20037;-82
2022/09/29 03:17:46;;;;;;;1.73;0.47;;;13.60;99.90;;;;;;5051677;28;20086;-83
2022/09/29 03:20:11;;;;;;;2.80;0.47;;;13.60;99.90;;;;;;5052372;28;20056;-83
2022/09/29 03:22:37;;;;;;;0.40;0.40;;;13.70;99.90;;;;;;5051708;28;20029;-82
2022/09/29 03:25:04;;;;;;;1.25;0.40;;;13.60;99.90;;;;;;5051889;28;20496;-83
2022/09/29 03:27:30;;;;;;;0.73;0.20;;;13.70;99.90;;;;;;5051766;28;20470;-82
2022/09/29 03:29:56;;;;;;;1.35;0.40;;;13.70;99.90;;;;;;5053491;28;20017;-83
2022/09/29 03:32:22;;;;;;;2.22;0.60;;;13.60;99.90;;;;;;5071852;28;20127;-82
2022/09/29 03:34:47;;;;;;;0.40;0.40;;;13.50;99.90;;;;;;5071653;28;20036;-83
2022/09/29 03:37:13;;;;;;;1.48;0.50;;;13.40;99.90;;;;;;5071211;28;20036;-83
2022/09/29 03:39:38;;;;;;;1.88;0.40;;;13.30;99.90;;;;;;5071841;28;20031;-83
2022/09/29 03:42:04;;;;;;;2.10;0.40;;;13.30;99.90;;;;;;5072100;28;20032;-83
2022/09/29 03:44:30;;;;;;;2.55;0.40;;;13.40;99.90;;;;;;5071811;28;20028;-82
2022/09/29 03:46:55;;;;;;;1.15;0.45;;;13.30;99.90;;;;;;5071693;28;20063;-83
2022/09/29 03:49:21;;;;;;;0.45;0.40;;;13.40;99.90;;;;;;5072144;28;20023;-83
2022/09/29 03:51:47;;;;;;;2.05;0.60;;;13.30;99.90;;;;;;5071298;28;20361;-83
2022/09/29 03:54:12;;;;;;;0.68;0.40;;;13.30;99.90;;;;;;5071437;28;20043;-83
2022/09/29 03:56:38;;;;;;;1.58;0.50;;;13.20;99.90;;;;;;5071922;28;20036;-83
2022/09/29 03:59:07;;;;;;;3.13;0.50;;;13.50;99.90;;;;;;5071607;28;20440;-82
2022/09/29 04:01:33;;;;;;;1.08;0.63;;;13.20;99.90;;;;;;5075099;28;20081;-82
2022/09/29 04:03:58;;;;;;;1.75;0.70;;;13.20;99.90;;;;;;5075296;28;20025;-82
2022/09/29 04:06:24;;;;;;;0.88;0.50;;;13.20;99.90;;;;;;5074793;28;20175;-82
2022/09/29 04:08:50;;;;;;;2.35;0.60;;;13.30;99.90;;;;;;5075303;28;20021;-83
2022/09/29 04:11:15;;;;;;;0.47;0.47;;;13.20;99.90;;;;;;5075501;28;20028;-83
2022/09/29 04:13:41;;;;;;;0.82;0.60;;;13.50;99.90;;;;;;5074869;28;20040;-82
2022/09/29 04:16:07;;;;;;;2.53;0.70;;;13.20;99.90;;;;;;5075184;28;20111;-83
2022/09/29 04:18:33;;;;;;;1.30;1.00;;;13.20;99.90;;;;;;5074949;28;20021;-83
2022/09/29 04:20:59;;;;;;;2.05;0.98;;;13.10;99.90;;;;;;5075123;28;20113;-83
2022/09/29 04:23:29;;;;;;;4.13;0.90;;;13.40;99.90;;;;;;5075020;28;20079;-83
2022/09/29 04:25:55;;;;;;;2.08;0.75;;;13.10;99.90;;;;;;5074593;28;20025;-83
2022/09/29 04:28:21;;;;;;;0.98;0.60;;;13.00;99.90;;;;;;5074870;28;20025;-83
2022/09/29 04:30:47;;;;;;;1.23;0.68;;;13.30;99.90;;;;;;5074723;28;20036;-82
2022/09/29 04:33:12;;;;;;;1.90;0.80;;;13.00;99.90;;;;;;5073619;28;20080;-83
2022/09/29 04:35:38;;;;;;;1.20;0.90;;;13.10;99.90;;;;;;5074739;28;20070;-83
2022/09/29 04:38:03;;;;;;;1.98;0.70;;;13.30;99.90;;;;;;5074581;28;20476;-83
2022/09/29 04:40:29;;;;;;;0.80;0.80;;;13.20;99.90;;;;;;5074689;28;20029;-83
2022/09/29 04:42:54;;;;;;;1.75;1.00;;;12.90;99.90;;;;;;5074830;28;20043;-82
2022/09/29 04:45:20;;;;;;;1.70;1.00;;;12.80;99.90;;;;;;5074795;28;20036;-83
2022/09/29 04:47:46;;;;;;;0.95;0.90;;;12.90;99.90;;;;;;5073332;28;20031;-83
2022/09/29 04:50:11;;;;;;;2.28;0.90;;;12.90;99.90;;;;;;5074027;28;20029;-83
2022/09/29 04:52:42;;;;;;;1.63;1.10;;;12.90;99.90;;;;;;5106936;28;20024;-83
2022/09/29 04:55:10;;;;;;;1.33;1.20;;;13.30;99.90;;;;;;5074128;28;20036;-83
2022/09/29 04:57:36;;;;;;;4.07;1.60;;;13.00;99.90;;;;;;5074642;28;20069;-83
2022/09/29 05:00:03;;;;;;;3.80;1.50;;;13.00;99.90;;;;;;5074234;28;20100;-82
2022/09/29 05:02:29;;;;;;;2.28;1.80;;;13.00;99.90;;;;;;5074172;28;20077;-83
2022/09/29 05:04:54;;;;;;;4.25;1.50;;;13.30;99.90;;;;;;5073920;28;20028;-82
2022/09/29 05:07:20;;;;;;;2.80;1.58;;;12.90;99.90;;;;;;5073998;28;20249;-82
2022/09/29 05:09:45;;;;;;;2.25;1.40;;;12.90;99.90;;;;;;5073980;28;20539;-83
2022/09/29 05:12:11;;;;;;;1.70;1.60;;;13.30;99.90;;;;;;5073232;28;20024;-83
2022/09/29 05:14:37;;;;;;;3.15;1.40;;;12.90;99.90;;;;;;5074234;28;20055;-82
2022/09/29 05:17:02;;;;;;;1.58;1.20;;;12.90;99.90;;;;;;5074707;28;20111;-82
2022/09/29 05:19:30;;;;;;;1.67;0.90;;;13.00;99.90;;;;;;5073827;28;20144;-82
2022/09/29 05:21:55;;;;;;;1.15;0.98;;;12.80;99.90;;;;;;5073754;28;20021;-83
2022/09/29 05:24:21;;;;;;;1.35;1.25;;;12.90;99.90;;;;;;5074000;28;20089;-83
2022/09/29 05:26:46;;;;;;;1.33;1.10;;;12.80;99.90;;;;;;5073542;28;20438;-83
2022/09/29 05:29:12;;;;;;;1.67;1.05;;;12.80;99.90;;;;;;5074550;28;20032;-83
2022/09/29 05:31:38;;;;;;;2.75;1.40;;;12.80;99.90;;;;;;5073229;28;20103;-83
2022/09/29 05:34:03;;;;;;;1.95;1.50;;;12.90;99.90;;;;;;5073878;28;20033;-83
2022/09/29 05:36:29;;;;;;;1.38;1.25;;;12.80;99.90;;;;;;5073460;28;20070;-82
2022/09/29 05:38:55;;;;;;;2.08;1.40;;;13.10;99.90;;;;;;5073285;28;20028;-82
2022/09/29 05:41:23;;;;;;;2.58;1.40;;;13.10;99.90;;;;;;5073708;28;20021;-83
2022/09/29 05:43:50;;;;;;;6.38;1.73;;;13.10;99.90;;;;;;5073344;28;20029;-82
2022/09/29 05:46:18;;;;;;;3.83;1.80;;;12.90;99.90;;;;;;5072775;28;20059;-83
2022/09/29 05:48:45;;;;;;;3.10;2.00;;;13.00;99.90;;;;;;5073336;28;20021;-83
2022/09/29 05:51:13;;;;;;;3.80;1.98;;;12.90;99.90;;;;;;5073615;28;20032;-83
2022/09/29 05:53:39;;;;;;;4.10;2.40;;;13.00;99.90;;;;;;5073403;28;20047;-82
2022/09/29 05:56:20;;;;;;;2.15;1.70;;;13.30;99.90;;;;;;5073057;28;20492;-83
2022/09/29 05:58:46;;;;;;;3.17;1.85;;;13.20;99.90;;;;;;5073860;28;20021;-83
2022/09/29 06:01:18;;;;;;;2.33;2.13;;;13.20;99.90;;;;;;5072340;28;20093;-83
2022/09/29 06:03:44;;;;;;;4.18;2.10;;;13.00;99.90;;;;;;5072861;28;20021;-83
2022/09/29 06:06:12;;;;;;;4.22;2.25;;;13.00;99.90;;;;;;5073017;28;20029;-83
2022/09/29 06:08:39;;;;;;;3.70;2.42;;;13.10;99.90;;;;;;5071624;28;20020;-83
2022/09/29 06:11:15;;;;;;;4.43;2.30;;;13.20;99.90;;;;;;5073041;28;20032;-82
2022/09/29 06:13:43;;;;;;;3.40;3.00;;;13.20;99.90;;;;;;5073547;28;20511;-82
2022/09/29 06:16:09;;;;;;;5.03;3.58;;;13.20;99.90;;;;;;5072483;28;20404;-82
2022/09/29 06:18:35;;;;;;;3.97;3.40;;;13.20;99.90;;;;;;5072689;28;20040;-82
2022/09/29 06:21:06;;;;;;;5.25;3.50;;;13.60;99.90;;;;;;5073040;28;20391;-82
2022/09/29 06:23:32;;;;;;;4.20;3.78;;;13.30;99.90;;;;;;5072798;28;20039;-83
2022/09/29 06:26:00;;;;;;;3.88;3.53;;;13.40;99.90;;;;;;5072406;28;20107;-83
2022/09/29 06:28:27;;;;;;;4.20;3.80;;;13.40;99.90;;;;;;5072629;28;20024;-83
2022/09/29 06:30:59;;;;;;;4.13;3.72;;;13.70;99.90;;;;;;5072095;28;20020;-83
2022/09/29 06:33:26;;;;;;;4.32;3.92;;;13.60;99.90;;;;;;5072163;28;20052;-83
2022/09/29 06:38:36;;;;;;;4.45;2.60;;;13.60;99.90;;;;;;5072476;28;20082;-83
2022/09/29 06:41:01;;;;;;;3.88;2.50;;;13.70;99.90;;;;;;5070824;28;20032;-83
2022/09/29 06:43:27;;;;;;;3.42;2.33;;;13.70;99.90;;;;;;5052532;28;20552;-83
2022/09/29 06:45:53;;;;;;;4.30;2.38;;;13.60;99.90;;;;;;5052107;28;20556;-83
2022/09/29 06:48:18;;;;;;;3.92;2.60;;;13.60;99.90;;;;;;5052807;28;20021;-86
2022/09/29 06:50:44;;;;;;;4.45;2.55;;;13.40;99.90;;;;;;5052202;28;20029;-83
2022/09/29 06:53:10;;;;;;;5.93;2.63;;;13.50;99.90;;;;;;5052170;28;20045;-84
2022/09/29 06:55:35;;;;;;;3.33;2.55;;;13.40;99.90;;;;;;5052443;28;20481;-83
2022/09/29 06:58:01;;;;;;;2.90;2.47;;;13.50;99.90;;;;;;5052238;28;20070;-83
2022/09/29 07:00:27;;;;;;;3.42;2.70;;;13.60;99.90;;;;;;5057438;28;20025;-83
2022/09/29 07:02:53;;;;;;;7.18;2.88;;;14.00;99.90;;;;;;5072079;28;20468;-83
2022/09/29 07:05:19;;;;;;;7.28;3.08;;;13.70;99.90;;;;;;5071975;28;20024;-83
2022/09/29 07:07:47;;;;;;;4.45;2.90;;;14.10;99.90;;;;;;5071992;28;20036;-83
2022/09/29 07:10:12;;;;;;;7.22;2.70;;;13.90;99.90;;;;;;5072043;28;20336;-83
2022/09/29 07:12:38;;;;;;;5.65;3.03;;;13.80;99.90;;;;;;5072290;28;20024;-83
2022/09/29 07:15:04;;;;;;;6.85;2.95;;;13.80;99.90;;;;;;5071574;28;20036;-83
2022/09/29 07:17:30;;;;;;;5.00;3.10;;;13.70;99.90;;;;;;5071945;28;20059;-83
2022/09/29 07:19:56;;;;;;;3.97;2.58;;;13.80;99.90;;;;;;5072385;28;20033;-83
2022/09/29 07:22:22;;;;;;;6.50;3.15;;;13.80;99.90;;;;;;5071917;28;20082;-83
2022/09/29 07:24:49;;;;;;;6.43;2.55;;;13.90;99.90;;;;;;5071889;28;20477;-83
2022/09/29 07:27:18;;;;;;;6.45;2.80;;;14.00;99.90;;;;;;5071727;28;20038;-83
2022/09/29 07:29:43;;;;;;;7.63;3.00;;;14.00;99.90;;;;;;5071648;28;20104;-83
2022/09/29 07:32:09;;;;;;;10.40;2.88;;;14.00;99.90;;;;;;5072190;28;20584;-83
2022/09/29 07:34:34;;;;;;;5.28;2.47;;;14.00;99.90;;;;;;5072610;28;20032;-83
2022/09/29 07:37:00;;;;;;;3.55;2.70;;;14.20;99.90;;;;;;5075724;28;20400;-83
2022/09/29 07:39:26;;;;;;;3.70;2.60;;;14.10;99.90;;;;;;5075832;28;20028;-83
2022/09/29 07:41:51;;;;;;;3.85;2.60;;;14.00;99.90;;;;;;5075709;28;20064;-83
2022/09/29 07:44:17;;;;;;;3.75;2.97;;;13.90;99.90;;;;;;5075741;28;20029;-83
2022/09/29 07:46:42;;;;;;;4.53;3.83;;;13.90;99.90;;;;;;5075804;28;20032;-83
2022/09/29 07:49:08;;;;;;;5.55;4.10;;;13.90;99.90;;;;;;5075409;28;20024;-83
2022/09/29 07:51:34;;;;;;;8.57;5.95;;;14.10;99.90;;;;;;5075485;28;20072;-83
2022/09/29 07:54:05;;;;;;;12.43;7.18;;;14.10;99.90;;;;;;5075865;28;20158;-83
2022/09/29 07:56:31;;;;;;;8.38;7.05;;;14.30;99.90;;;;;;5074180;28;20468;-83
2022/09/29 07:58:57;;;;;;;8.70;6.70;;;14.40;99.90;;;;;;5075294;28;20016;-83
2022/09/29 08:01:23;;;;;;;10.32;8.52;;;14.70;99.90;;;;;;5074222;28;20392;-83
2022/09/29 08:03:51;;;;;;;10.63;8.40;;;14.50;99.90;;;;;;5075086;28;20025;-83
2022/09/29 08:06:18;;;;;;;9.90;7.55;;;14.50;99.90;;;;;;5073921;28;20511;-83
2022/09/29 08:08:44;;;;;;;8.65;5.82;;;14.50;99.90;;;;;;5075258;28;20054;-83
2022/09/29 08:11:12;;;;;;;9.73;5.40;;;14.80;99.90;;;;;;5075222;28;20404;-83
2022/09/29 08:13:38;;;;;;;5.63;4.30;;;14.60;99.90;;;;;;5075143;28;20020;-83
2022/09/29 08:16:06;;;;;;;4.38;3.25;;;14.50;99.90;;;;;;5074830;28;20131;-83
2022/09/29 08:18:33;;;;;;;5.05;3.50;;;14.40;99.90;;;;;;5074902;28;20017;-83
2022/09/29 08:20:59;;;;;;;3.13;2.08;;;14.30;99.90;;;;;;5075023;28;20033;-83
2022/09/29 08:23:24;;;;;;;1.85;1.30;;;14.20;99.90;;;;;;5074963;28;20032;-83
2022/09/29 08:25:58;;;;;;;1.77;1.17;;;14.30;99.90;;;;;;5073133;28;20472;-84
2022/09/29 08:28:24;;;;;;;2.17;1.70;;;14.40;99.90;;;;;;5074876;28;20039;-83
2022/09/29 08:30:49;;;;;;;3.55;1.98;;;14.60;99.90;;;;;;5073381;28;20037;-83
2022/09/29 08:33:15;;;;;;;4.22;1.90;;;14.70;99.90;;;;;;5074416;28;20044;-83
2022/09/29 08:35:41;;;;;;;2.50;2.05;;;14.90;99.90;;;;;;5074871;28;20044;-84
2022/09/29 08:38:07;;;;;;;3.17;1.85;;;15.00;99.90;;;;;;5074723;28;20024;-83
2022/09/29 08:40:33;;;;;;;3.80;1.95;;;15.00;99.90;;;;;;5073009;28;20020;-83
2022/09/29 08:43:01;;;;;;;3.33;1.40;;;15.10;99.90;;;;;;5075002;28;20059;-84
2022/09/29 08:45:36;;;;;;;2.58;1.27;;;15.50;99.90;;;;;;5074240;28;20530;-83
2022/09/29 08:48:11;;;;;;;1.33;1.10;;;15.50;99.90;;;;;;5072423;28;20430;-83
2022/09/29 08:50:50;;;;;;;1.98;1.13;;;15.30;99.90;;;;;;5074505;28;20016;-83
2022/09/29 08:53:20;;;;;;;2.42;1.20;;;15.30;99.90;;;;;;5074385;28;20024;-83
2022/09/29 08:55:52;;;;;;;2.65;1.02;;;15.30;99.90;;;;;;5073996;28;20037;-83
2022/09/29 08:58:18;;;;;;;2.05;0.95;;;14.90;99.90;;;;;;5074818;28;20560;-83
2022/09/29 09:00:50;;;;;;;3.25;1.23;;;14.70;99.90;;;;;;5073976;28;20473;-83
2022/09/29 09:03:22;;;;;;;1.33;0.90;;;14.80;99.90;;;;;;5073982;28;20024;-83
2022/09/29 09:06:06;;;;;;;3.13;1.17;;;14.70;99.90;;;;;;5073992;28;20480;-83
2022/09/29 09:08:40;;;;;;;1.67;1.10;;;14.60;99.90;;;;;;5074099;28;20400;-83
2022/09/29 09:11:24;;;;;;;2.25;1.20;;;14.80;99.90;;;;;;5074151;28;20492;-83
2022/09/29 09:14:11;;;;;;;2.13;1.40;;;14.90;99.90;;;;;;5072963;28;20025;-83
2022/09/29 09:16:54;;;;;;;1.90;1.30;;;15.20;99.90;;;;;;5073845;28;20035;-83
2022/09/29 09:19:35;;;;;;;2.10;1.20;;;15.20;99.90;;;;;;5073947;28;20063;-83
2022/09/29 09:22:12;;;;;;;3.60;1.75;;;15.30;99.90;;;;;;5074252;28;20025;-83
2022/09/29 09:24:38;;;;;;;4.93;2.20;;;15.20;99.90;;;;;;5073879;28;20108;-83
2022/09/29 09:27:03;;;;;;;5.05;1.75;;;15.20;99.90;;;;;;5072315;28;20099;-83
2022/09/29 09:29:34;;;;;;;5.38;3.10;;;15.20;99.90;;;;;;5073775;28;20064;-83
2022/09/29 09:32:31;;;;;;;3.72;1.60;;;15.10;99.90;;;;;;5073288;28;20048;-83
2022/09/29 09:35:20;;;;;;;2.70;1.60;;;15.10;99.90;;;;;;5073560;28;20373;-83
2022/09/29 09:37:47;;;;;;;2.17;1.48;;;15.10;99.90;;;;;;5073562;28;20025;-83
2022/09/29 09:40:13;;;;;;;2.35;1.30;;;15.20;99.90;;;;;;5073056;28;20071;-83
2022/09/29 09:42:43;;;;;;;1.58;1.35;;;15.20;99.90;;;;;;5073572;28;20024;-83
2022/09/29 09:45:22;;;;;;;2.05;1.38;;;15.00;99.90;;;;;;5073219;28;20024;-83
2022/09/29 09:47:54;;;;;;;2.17;1.20;;;14.70;99.90;;;;;;5073387;28;20021;-83
2022/09/29 09:50:24;;;;;;;2.95;1.40;;;14.80;99.90;;;;;;5073254;28;20066;-83
2022/09/29 09:53:19;;;;;;;2.25;1.00;;;15.10;99.90;;;;;;5073762;28;20021;-83
2022/09/29 09:56:10;;;;;;;2.08;1.10;;;15.70;99.90;;;;;;5073140;28;20392;-83
2022/09/29 09:58:56;;;;;;;2.20;1.00;;;16.00;99.90;;;;;;5072705;28;20427;-83
2022/09/29 10:01:22;;;;;;;1.92;1.23;;;16.20;99.90;;;;;;5072943;28;20025;-82
2022/09/29 10:03:47;;;;;;;2.30;1.10;;;16.00;99.90;;;;;;5072923;28;20035;-83
2022/09/29 10:06:13;;;;;;;2.10;1.20;;;15.70;99.90;;;;;;5072932;28;20031;-83
2022/09/29 10:08:41;;;;;;;1.75;1.23;;;15.80;99.90;;;;;;5072657;28;20032;-83
2022/09/29 10:11:30;;;;;;;2.40;1.40;;;15.40;99.90;;;;;;5072763;28;20435;-83
2022/09/29 10:14:25;;;;;;;2.20;0.95;;;15.60;99.90;;;;;;5072761;28;20059;-83
2022/09/29 10:17:01;;;;;;;1.90;0.90;;;15.80;99.90;;;;;;5067982;28;20159;-83
2022/09/29 10:19:55;;;;;;;2.25;1.00;;;16.00;99.90;;;;;;5072963;28;20086;-83
2022/09/29 10:22:21;;;;;;;1.63;0.93;;;16.20;99.90;;;;;;5072248;28;20029;-83
2022/09/29 10:24:46;;;;;;;1.83;0.80;;;16.30;99.90;;;;;;5072736;28;20031;-83
2022/09/29 10:27:19;;;;;;;2.55;1.02;;;16.20;99.90;;;;;;5072370;28;20032;-83
2022/09/29 10:29:51;;;;;;;1.95;1.05;;;16.30;99.90;;;;;;5072529;28;20028;-83
2022/09/29 10:32:37;;;;;;;1.75;1.00;;;16.10;99.90;;;;;;5051274;28;20515;-83
2022/09/29 10:35:21;;;;;;;2.85;1.23;;;15.90;99.90;;;;;;5052148;28;20056;-83
2022/09/29 10:37:51;;;;;;;1.85;1.30;;;15.90;99.90;;;;;;5052446;28;20021;-83
2022/09/29 10:40:20;;;;;;;1.65;1.10;;;15.80;99.90;;;;;;5052244;28;20049;-83
2022/09/29 10:42:49;;;;;;;2.42;0.95;;;15.80;99.90;;;;;;5052275;28;20462;-83
2022/09/29 10:45:46;;;;;;;2.42;0.85;;;15.50;99.90;;;;;;5052280;28;20041;-83
2022/09/29 10:48:13;;;;;;;3.25;1.00;;;15.10;99.90;;;;;;5052496;28;20107;-83
2022/09/29 10:51:04;;;;;;;2.92;1.30;;;15.30;99.90;;;;;;5052015;28;20028;-83
2022/09/29 10:53:37;;;;;;;4.43;1.73;;;15.20;99.90;;;;;;5052260;28;20025;-83
2022/09/29 10:56:20;;;;;;;3.28;2.10;;;15.20;99.90;;;;;;5052624;28;20029;-83
2022/09/29 10:58:58;;;;;;;4.18;1.52;;;15.00;99.90;;;;;;5053164;28;20017;-83
2022/09/29 11:01:26;;;;;;;2.72;1.55;;;15.20;99.90;;;;;;5065600;28;20078;-83
2022/09/29 11:04:05;;;;;;;2.10;1.50;;;15.30;99.90;;;;;;5072100;28;20441;-83
2022/09/29 11:06:34;;;;;;;3.55;1.52;;;15.50;99.90;;;;;;5072192;28;20029;-83
2022/09/29 11:09:16;;;;;;;2.28;1.30;;;15.30;99.90;;;;;;5070080;28;20040;-83
2022/09/29 11:11:48;;;;;;;2.08;1.20;;;15.70;99.90;;;;;;5072205;28;20058;-84
2022/09/29 11:14:35;;;;;;;3.03;1.38;;;15.60;99.90;;;;;;5071962;28;20103;-83
2022/09/29 11:17:19;;;;;;;2.08;1.00;;;15.00;99.90;;;;;;5072440;28;20028;-83
2022/09/29 11:19:45;;;;;;;4.03;0.93;;;14.70;99.90;;;;;;5072163;28;20024;-83
2022/09/29 11:22:19;;;;;;;1.80;0.90;;;14.20;99.90;;;;;;5072095;28;20024;-83
2022/09/29 11:25:36;;;;;;;2.30;1.30;;;14.30;99.90;;;;;;5071827;28;20035;-83
2022/09/29 11:28:25;;;;;;;2.30;1.08;;;14.30;99.90;;;;;;5029705;28;20041;-83
2022/09/29 11:31:22;;;;;;;2.05;1.10;;;14.70;99.90;;;;;;5029734;28;20068;-83
2022/09/29 11:34:14;;;;;;;1.13;0.93;;;14.40;99.90;;;;;;5029937;28;20132;-83
2022/09/29 11:36:56;;;;;;;1.98;1.13;;;14.40;99.90;;;;;;5029771;28;20506;-83
2022/09/29 11:39:22;;;;;;;1.90;1.10;;;14.50;99.90;;;;;;5029753;28;20426;-83
2022/09/29 11:42:13;;;;;;;1.88;1.30;;;14.50;99.90;;;;;;5029369;28;20339;-83
2022/09/29 11:44:53;;;;;;;1.88;1.05;;;14.60;99.90;;;;;;5029658;28;20378;-83
2022/09/29 11:47:39;;;;;;;2.20;1.15;;;14.60;99.90;;;;;;5029543;28;20025;-83
2022/09/29 11:50:28;;;;;;;2.83;1.35;;;14.80;99.90;;;;;;5029297;28;20072;-83
2022/09/29 11:53:17;;;;;;;3.65;1.65;;;14.60;99.90;;;;;;5030675;28;20037;-83
2022/09/29 11:56:08;;;;;;;2.35;1.33;;;14.50;99.90;;;;;;5029567;28;20041;-83
2022/09/29 11:59:17;;;;;;;1.55;1.20;;;14.60;99.90;;;;;;5038816;28;20527;-83
2022/09/29 12:01:54;;;;;;;4.05;1.70;;;14.70;99.90;;;;;;5068214;28;20033;-83
2022/09/29 12:04:26;;;;;;;2.70;1.35;;;14.80;99.90;;;;;;5071197;28;20043;-83
2022/09/29 12:07:12;;;;;;;2.45;1.15;;;15.20;99.90;;;;;;5071592;28;20079;-83
2022/09/29 12:09:52;;;;;;;2.60;0.90;;;15.10;99.90;;;;;;5071452;28;20029;-83
2022/09/29 12:12:54;;;;;;;2.65;1.17;;;15.20;99.90;;;;;;5071473;28;20028;-83
2022/09/29 12:15:42;;;;;;;2.47;1.02;;;15.20;99.90;;;;;;5071413;28;20032;-83
2022/09/29 12:18:18;;;;;;;2.22;1.10;;;15.40;99.90;;;;;;5071715;28;20031;-83
2022/09/29 12:20:47;;;;;;;2.47;1.10;;;15.50;99.90;;;;;;5072340;28;20511;-83
2022/09/29 12:23:17;;;;;;;2.13;0.90;;;15.70;99.90;;;;;;5074954;28;20060;-83
2022/09/29 12:26:15;;;;;;;2.30;0.88;;;16.00;99.90;;;;;;5074919;28;20047;-83
2022/09/29 12:29:05;;;;;;;2.55;0.90;;;16.50;99.90;;;;;;5074264;28;20040;-83
2022/09/29 12:31:40;;;;;;;3.17;1.00;;;17.10;99.90;;;;;;5074760;28;20031;-83
2022/09/29 12:34:14;;;;;;;1.90;1.02;;;17.30;99.90;;;;;;5074308;28;20123;-83
2022/09/29 12:36:52;;;;;;;3.25;1.40;;;17.10;99.90;;;;;;5074964;28;20036;-83
2022/09/29 12:39:46;;;;;;;1.98;1.25;;;17.10;99.90;;;;;;5074947;28;20111;-83
2022/09/29 12:42:19;;;;;;;1.83;0.93;;;17.00;99.90;;;;;;5074734;28;20074;-83
2022/09/29 12:45:13;;;;;;;4.68;1.42;;;17.00;99.90;;;;;;5074657;28;20044;-83
2022/09/29 12:47:53;;;;;;;2.90;1.50;;;17.10;99.90;;;;;;5074860;28;20107;-83
2022/09/29 12:50:37;;;;;;;3.80;0.90;;;16.80;99.90;;;;;;5074804;28;20040;-83
2022/09/29 12:53:24;;;;;;;2.30;0.90;;;17.10;99.90;;;;;;5074337;28;20013;-83
2022/09/29 12:55:58;;;;;;;2.53;0.82;;;16.80;99.90;;;;;;5074842;28;20044;-83
2022/09/29 12:58:39;;;;;;;1.42;0.90;;;17.10;99.90;;;;;;5073055;28;20412;-83
2022/09/29 13:01:21;;;;;;;1.90;0.93;;;17.20;99.90;;;;;;5074553;28;20043;-83
2022/09/29 13:04:18;;;;;;;3.13;1.00;;;17.00;99.90;;;;;;5074305;28;20025;-83
2022/09/29 13:07:04;;;;;;;2.13;0.90;;;17.20;99.90;;;;;;5074647;28;20043;-83
2022/09/29 13:09:48;;;;;;;2.78;1.00;;;17.20;99.90;;;;;;5073715;28;20048;-84
2022/09/29 13:12:23;;;;;;;4.78;1.10;;;17.10;99.90;;;;;;5074808;28;20029;-83
2022/09/29 13:15:12;;;;;;;1.60;0.98;;;17.10;99.90;;;;;;5074026;28;20029;-83